Instrutors AND Monitors
2v2 - Horde - Instrutor

Estatísticas do Time
Batalhas
V / D
Vitórias %
Rating Time
Semana 0 0 / 0 0% 1433
Período 160 71 / 89 44% 1433
Membros do Time
Nome
Raça
Classe
Facção
Vitórias
Batalhas
Rating Pessoal
Instrutor 60 129 1446
Deplacee 71 159 1433
Knifeskull 0 2 996

Histórico de Rating do Time

ID Luta
Oponente
Resultado
Rating Time
Inicio da Batalha
Duração
Detalhes
73529Time Apagado Perdeu1441 (-8)31/07/2020 às 19:3226 seg
73526Time Apagado Perdeu1450 (-9)31/07/2020 às 19:3024 seg
73519com sonoPerdeu1455 (-5)31/07/2020 às 19:242 min e 36 seg
73514M D atPerdeu1463 (-8)31/07/2020 às 19:1955 seg
73511M D atVitória1446 (+17)31/07/2020 às 19:172 min e 52 seg
73506Time Apagado Vitória1434 (+12)31/07/2020 às 19:121 min e 23 seg
73503Time Apagado Vitória1422 (+12)31/07/2020 às 19:091 min e 20 seg
73501Time Apagado Vitória1409 (+13)31/07/2020 às 19:062 min e 1 seg
73497Time Apagado Vitória1396 (+13)31/07/2020 às 19:012 min e 20 seg
73493sai do lago rivaldoPerdeu1400 (-4)31/07/2020 às 18:571 min e 18 seg
70134peguei sua maePerdeu1409 (-9)24/07/2020 às 22:1341 seg
70132PICEDOBPerdeu1416 (-7)24/07/2020 às 22:1148 seg
70129Fuziirush PassafomeVitória1403 (+13)24/07/2020 às 22:091 min e 23 seg
70124Fuziirush PassafomePerdeu1415 (-12)24/07/2020 às 22:061 min e 8 seg
70121Fuziirush PassafomeVitória1402 (+13)24/07/2020 às 22:031 min e 41 seg
70117peguei sua maePerdeu1411 (-9)24/07/2020 às 22:002 min e 12 seg
69629Fuziirush PassafomePerdeu1422 (-11)23/07/2020 às 23:3630 seg
69627Ta in HordePerdeu1433 (-11)23/07/2020 às 23:351 min e 29 seg
69618Cura minha UREIAPerdeu1442 (-9)23/07/2020 às 23:271 min e 42 seg
69615Ta in HordeVitória1429 (+13)23/07/2020 às 23:241 min e 23 seg
69610Uva PassaVitória1415 (+14)23/07/2020 às 23:1954 seg
69607Uva PassaVitória1401 (+14)23/07/2020 às 23:1745 seg
69605Uva PassaPerdeu1411 (-10)23/07/2020 às 23:141 min e 1 seg
69602Uva PassaPerdeu1422 (-11)23/07/2020 às 23:121 min e 15 seg
69599Uva PassaVitória1408 (+14)23/07/2020 às 23:091 min e 5 seg
69595Uva PassaPerdeu1419 (-11)23/07/2020 às 23:071 min e 24 seg
69591LiberdadPerdeu1425 (-6)23/07/2020 às 23:0042 seg
69478E NOISVitória1411 (+14)23/07/2020 às 19:121 min e 15 seg
69470nagazakiVitória1397 (+14)23/07/2020 às 19:043 min e 1 seg
69465nagazakiVitória1382 (+15)23/07/2020 às 19:004 min e 36 seg
69462Time Apagado Vitória1365 (+17)23/07/2020 às 18:541 min e 9 seg
69460Time Apagado Perdeu1373 (-8)23/07/2020 às 18:521 min e 29 seg
69458TEMPLARIOSVitória1359 (+14)23/07/2020 às 18:483 min e 26 seg
69445Thaty and Salin new metaVitória1344 (+15)23/07/2020 às 18:301 min e 4 seg
69443TEMPLARIOSVitória1329 (+15)23/07/2020 às 18:272 min e 46 seg
69440Champion hkxPerdeu1335 (-6)23/07/2020 às 18:236 min e 13 seg
69429Time Apagado Perdeu1342 (-7)23/07/2020 às 18:112 min e 9 seg
69424TEMPLARIOSVitória1327 (+15)23/07/2020 às 18:042 min e 41 seg
69421foda criar nomeVitória1313 (+14)23/07/2020 às 18:001 min e 41 seg
69418foda criar nomePerdeu1323 (-10)23/07/2020 às 17:571 min e 3 seg
68636Us princeso lineBRPerdeu1329 (-6)21/07/2020 às 20:441 min e 7 seg
68632Us princeso lineBRPerdeu1336 (-7)21/07/2020 às 20:4047 seg
68630Us princeso lineBRPerdeu1343 (-7)21/07/2020 às 20:3755 seg
68627Us princeso lineBRPerdeu1350 (-7)21/07/2020 às 20:331 min e 0 seg
68625choram as rosasPerdeu1362 (-12)21/07/2020 às 20:301 min e 14 seg
68624choram as rosasVitória1349 (+13)21/07/2020 às 20:261 min e 32 seg
68618choram as rosasVitória1336 (+13)21/07/2020 às 20:231 min e 17 seg
68616choram as rosasPerdeu1347 (-11)21/07/2020 às 20:201 min e 46 seg
68613choram as rosasVitória1334 (+13)21/07/2020 às 20:161 min e 44 seg
68610Uva PassaVitória1318 (+16)21/07/2020 às 20:112 min e 15 seg
68605Time Apagado Vitória1302 (+16)21/07/2020 às 20:072 min e 6 seg
68600Uva PassaPerdeu1310 (-8)21/07/2020 às 20:011 min e 12 seg
68597Uva PassaVitória1293 (+17)21/07/2020 às 19:5940 seg
68591Time Apagado Perdeu1301 (-8)21/07/2020 às 19:435 seg
68585Pala Holy e WarPerdeu1304 (-3)21/07/2020 às 19:3256 seg
68246Time Apagado Perdeu1313 (-9)20/07/2020 às 22:131 min e 13 seg
68242Time Apagado Perdeu1323 (-10)20/07/2020 às 22:103 min e 38 seg
68237Time Apagado Vitória1308 (+15)20/07/2020 às 22:061 min e 22 seg
68235CuspiPerdeu1319 (-11)20/07/2020 às 22:033 min e 57 seg
68231Time Apagado Vitória1302 (+17)20/07/2020 às 21:581 min e 33 seg
68226Best prist magePerdeu1309 (-7)20/07/2020 às 21:541 min e 36 seg
68222Best prist magePerdeu1317 (-8)20/07/2020 às 21:511 min e 28 seg
68160dasdPerdeu1324 (-7)20/07/2020 às 20:4456 seg
68159Ta in HordePerdeu1333 (-9)20/07/2020 às 20:421 min e 1 seg
68157Restaurante do iDonPerdeu1338 (-5)20/07/2020 às 20:393 min e 53 seg
68155xama no reskVitória1326 (+12)20/07/2020 às 20:341 min e 27 seg
68153xama no reskVitória1314 (+12)20/07/2020 às 20:311 min e 39 seg
68151xama no reskVitória1301 (+13)20/07/2020 às 20:273 min e 20 seg
68137xama no reskVitória1287 (+14)20/07/2020 às 20:0151 seg
68134Time Apagado Vitória1270 (+17)20/07/2020 às 19:5943 seg
68133Time Apagado Vitória1252 (+18)20/07/2020 às 19:5738 seg
68132Time Apagado Vitória1232 (+20)20/07/2020 às 19:551 min e 3 seg
68130EUEHEUEHEUEHEEUEHEUEHEQTPerdeu1236 (-4)20/07/2020 às 19:532 min e 44 seg
68127EUEHEUEHEUEHEEUEHEUEHEQTPerdeu1240 (-4)20/07/2020 às 19:481 min e 45 seg
68124panelinha do otavioVitória1221 (+19)20/07/2020 às 19:442 min e 11 seg
68123panelinha do otavioPerdeu1231 (-10)20/07/2020 às 19:401 min e 13 seg
68121Mage Pro and low gearPerdeu1238 (-7)20/07/2020 às 19:371 min e 30 seg
68119pareceumagazelaPerdeu1243 (-5)20/07/2020 às 19:345 min e 50 seg
68116panelinha do otavioVitória1225 (+18)20/07/2020 às 19:272 min e 25 seg
68113panelinha do otavioPerdeu1234 (-9)20/07/2020 às 19:1851 seg
68111pareceumagazelaPerdeu1239 (-5)20/07/2020 às 19:1557 seg
68110pareceumagazelaPerdeu1244 (-5)20/07/2020 às 19:131 min e 25 seg
68109Only Jesus can save youVitória1221 (+23)20/07/2020 às 19:1040 seg
68107pareceumagazelaPerdeu1226 (-5)20/07/2020 às 19:011 min e 43 seg
67415peguei sua maePerdeu1232 (-6)18/07/2020 às 23:221 min e 52 seg
67413peguei sua maeVitória1208 (+24)18/07/2020 às 23:191 min e 9 seg
67412peguei sua maePerdeu1214 (-6)18/07/2020 às 23:171 min e 38 seg
67409peguei sua maePerdeu1220 (-6)18/07/2020 às 23:122 min e 24 seg
67406peguei sua maePerdeu1226 (-6)18/07/2020 às 23:081 min e 12 seg
67405peguei sua maePerdeu1233 (-7)18/07/2020 às 23:061 min e 17 seg
67403peguei sua maeVitória1210 (+23)18/07/2020 às 23:031 min e 53 seg
67401peguei sua maePerdeu1216 (-6)18/07/2020 às 23:001 min e 27 seg
67399peguei sua maePerdeu1223 (-7)18/07/2020 às 22:5858 seg
67397peguei sua maeVitória1199 (+24)18/07/2020 às 22:561 min e 6 seg
67395peguei sua maeVitória1173 (+26)18/07/2020 às 22:531 min e 20 seg
67393peguei sua maeVitória1144 (+29)18/07/2020 às 22:512 min e 49 seg
67391peguei sua maeVitória1112 (+32)18/07/2020 às 22:472 min e 4 seg
67388peguei sua maePerdeu1116 (-4)18/07/2020 às 22:441 min e 9 seg
67385peguei sua maePerdeu1121 (-5)18/07/2020 às 22:411 min e 40 seg
67380peguei sua maePerdeu1126 (-5)18/07/2020 às 22:381 min e 19 seg
67377peguei sua maeVitória1093 (+33)18/07/2020 às 22:361 min e 49 seg
67374peguei sua maePerdeu1098 (-5)18/07/2020 às 22:331 min e 22 seg
67372me snipe se puderPerdeu1102 (-4)18/07/2020 às 22:310 seg
67369Time Apagado Perdeu1105 (-3)18/07/2020 às 22:291 min e 6 seg
67366me snipe se puderPerdeu1109 (-4)18/07/2020 às 22:2739 seg
67364CabgaceirosVitória1084 (+25)18/07/2020 às 22:2452 seg
67359sla meoPerdeu1086 (-2)18/07/2020 às 22:201 min e 36 seg
67356me snipe se puderPerdeu1090 (-4)18/07/2020 às 22:1536 seg
67354me snipe se puderPerdeu1094 (-4)18/07/2020 às 22:1334 seg
67353me snipe se puderPerdeu1098 (-4)18/07/2020 às 22:111 min e 13 seg
67351me snipe se puderPerdeu1102 (-4)18/07/2020 às 22:091 min e 20 seg
67349me snipe se puderVitória1066 (+36)18/07/2020 às 22:0754 seg
67348me snipe se puderPerdeu1070 (-4)18/07/2020 às 22:051 min e 6 seg
67346sla meoPerdeu1072 (-2)18/07/2020 às 22:021 min e 9 seg
67344sla meoPerdeu1074 (-2)18/07/2020 às 22:001 min e 4 seg
67342sla meoPerdeu1076 (-2)18/07/2020 às 21:571 min e 5 seg
67340sla meoVitória1076 (+0)18/07/2020 às 21:550 seg
67338RUSH ONPerdeu1078 (-2)18/07/2020 às 21:4949 seg
67259KillPerdeu1080 (-2)18/07/2020 às 19:2255 seg
67256Time Apagado Perdeu1084 (-4)18/07/2020 às 19:204 min e 22 seg
67252Time Apagado Perdeu1089 (-5)18/07/2020 às 19:141 min e 34 seg
67249KillPerdeu1092 (-3)18/07/2020 às 19:082 min e 5 seg
67247Test TeamVitória1055 (+37)18/07/2020 às 19:041 min e 5 seg
67244Time Apagado Perdeu1057 (-2)18/07/2020 às 19:0037 seg
67243Time Apagado Vitória1014 (+43)18/07/2020 às 18:5958 seg
67241CRACUDOPerdeu1016 (-2)18/07/2020 às 18:531 min e 57 seg
67240CRACUDOPerdeu1018 (-2)18/07/2020 às 18:501 min e 35 seg
67239CRACUDOPerdeu1020 (-2)18/07/2020 às 18:472 min e 58 seg
67238mim da goldVitória978 (+42)18/07/2020 às 18:292 min e 14 seg
67237O VENTO TRAZ OS LAGSVitória934 (+44)18/07/2020 às 18:2659 seg
67236mim da goldVitória891 (+43)18/07/2020 às 18:242 min e 42 seg
66685Cu de vaca e de boiVitória846 (+45)17/07/2020 às 18:446 min e 19 seg
66683LOUCURA COM DOIDEIRAVitória802 (+44)17/07/2020 às 18:361 min e 29 seg
66682Cu de vaca e de boiVitória756 (+46)17/07/2020 às 18:331 min e 14 seg
66681LOUCURA COM DOIDEIRAVitória711 (+45)17/07/2020 às 18:3152 seg
66679LOUCURA COM DOIDEIRAVitória665 (+46)17/07/2020 às 18:2945 seg
66676Champion hkxVitória618 (+47)17/07/2020 às 18:272 min e 11 seg
66674Champion hkxPerdeu618 (0)17/07/2020 às 18:231 min e 5 seg
66671COVID VAI TE MATAPerdeu618 (0)17/07/2020 às 18:213 min e 43 seg
66664COVID VAI TE MATAPerdeu618 (0)17/07/2020 às 18:154 min e 35 seg
66653COVID VAI TE MATAPerdeu618 (0)17/07/2020 às 18:092 min e 20 seg
66637Cu de vaca e de boiVitória571 (+47)17/07/2020 às 17:592 min e 44 seg
66627Time Apagado Vitória524 (+47)17/07/2020 às 17:551 min e 12 seg
66621LOUCURA COM DOIDEIRAVitória477 (+47)17/07/2020 às 17:521 min e 25 seg
66616LOUCURA COM DOIDEIRAVitória430 (+47)17/07/2020 às 17:491 min e 51 seg
66607Time Apagado Perdeu430 (0)17/07/2020 às 17:4639 seg
66604victormanPerdeu430 (0)17/07/2020 às 17:441 min e 4 seg
66596Inserte nombre aquiVitória382 (+48)17/07/2020 às 17:401 min e 1 seg
66591Champion hkxPerdeu382 (0)17/07/2020 às 17:371 min e 2 seg
66587victormanPerdeu382 (0)17/07/2020 às 17:3446 seg
66583victormanPerdeu382 (0)17/07/2020 às 17:321 min e 20 seg
66022HerosVitória335 (+47)16/07/2020 às 21:111 min e 2 seg
66018Meu amigo WisleyPerdeu335 (0)16/07/2020 às 21:061 min e 29 seg
66015Meu amigo WisleyPerdeu335 (0)16/07/2020 às 21:041 min e 15 seg
66012HerosVitória287 (+48)16/07/2020 às 21:011 min e 55 seg
66009NightwishVitória239 (+48)16/07/2020 às 20:574 min e 49 seg
66007SuperSol TeamVitória192 (+47)16/07/2020 às 20:511 min e 11 seg
66005SuperSol TeamVitória144 (+48)16/07/2020 às 20:481 min e 4 seg
66003SuperSol TeamVitória96 (+48)16/07/2020 às 20:441 min e 9 seg
66001HerosVitória48 (+48)16/07/2020 às 20:411 min e 55 seg
65998Quarentena GamerVitória0 (+48)16/07/2020 às 20:381 min e 54 seg

As informações dessa pagina são atualizadas a cada 15 minutos.